sensor_id;sensor_type;location;lat;lon;timestamp;P1;durP1;ratioP1;P2;durP2;ratioP2
8327;SDS011;4201;48.754;8.864;2023-02-19T00:01:11;6.80;;;5.47;;
8327;SDS011;4201;48.754;8.864;2023-02-19T00:03:38;7.00;;;5.87;;
8327;SDS011;4201;48.754;8.864;2023-02-19T00:06:05;7.17;;;5.03;;
8327;SDS011;4201;48.754;8.864;2023-02-19T00:08:32;7.17;;;5.50;;
8327;SDS011;4201;48.754;8.864;2023-02-19T00:11:00;7.27;;;5.77;;
8327;SDS011;4201;48.754;8.864;2023-02-19T00:13:27;7.10;;;5.63;;
8327;SDS011;4201;48.754;8.864;2023-02-19T00:15:53;6.93;;;5.80;;
8327;SDS011;4201;48.754;8.864;2023-02-19T00:18:20;8.07;;;5.00;;
8327;SDS011;4201;48.754;8.864;2023-02-19T00:20:46;8.03;;;5.83;;
8327;SDS011;4201;48.754;8.864;2023-02-19T00:23:12;6.73;;;5.00;;
8327;SDS011;4201;48.754;8.864;2023-02-19T00:25:39;6.83;;;4.63;;
8327;SDS011;4201;48.754;8.864;2023-02-19T00:28:06;8.07;;;4.57;;
8327;SDS011;4201;48.754;8.864;2023-02-19T00:30:34;5.00;;;4.37;;
8327;SDS011;4201;48.754;8.864;2023-02-19T00:33:00;5.77;;;5.17;;
8327;SDS011;4201;48.754;8.864;2023-02-19T00:35:26;5.60;;;4.83;;
8327;SDS011;4201;48.754;8.864;2023-02-19T00:37:52;7.60;;;5.73;;
8327;SDS011;4201;48.754;8.864;2023-02-19T00:40:18;7.70;;;5.43;;
8327;SDS011;4201;48.754;8.864;2023-02-19T00:42:45;6.80;;;5.20;;
8327;SDS011;4201;48.754;8.864;2023-02-19T00:45:12;6.13;;;4.83;;
8327;SDS011;4201;48.754;8.864;2023-02-19T00:47:38;5.77;;;4.43;;
8327;SDS011;4201;48.754;8.864;2023-02-19T00:50:05;7.57;;;5.50;;
8327;SDS011;4201;48.754;8.864;2023-02-19T00:52:31;5.20;;;4.47;;
8327;SDS011;4201;48.754;8.864;2023-02-19T00:54:57;6.03;;;5.43;;
8327;SDS011;4201;48.754;8.864;2023-02-19T00:57:24;5.97;;;4.77;;
8327;SDS011;4201;48.754;8.864;2023-02-19T00:59:50;7.80;;;4.40;;
8327;SDS011;4201;48.754;8.864;2023-02-19T01:02:17;5.80;;;5.00;;
8327;SDS011;4201;48.754;8.864;2023-02-19T01:04:44;5.70;;;4.23;;
8327;SDS011;4201;48.754;8.864;2023-02-19T01:07:10;5.50;;;4.67;;
8327;SDS011;4201;48.754;8.864;2023-02-19T01:09:36;6.00;;;4.33;;
8327;SDS011;4201;48.754;8.864;2023-02-19T01:12:03;6.40;;;5.17;;
8327;SDS011;4201;48.754;8.864;2023-02-19T01:14:29;7.20;;;4.33;;
8327;SDS011;4201;48.754;8.864;2023-02-19T01:16:55;6.40;;;4.77;;
8327;SDS011;4201;48.754;8.864;2023-02-19T01:19:23;7.07;;;4.80;;
8327;SDS011;4201;48.754;8.864;2023-02-19T01:21:49;5.97;;;4.60;;
8327;SDS011;4201;48.754;8.864;2023-02-19T01:24:15;4.67;;;3.93;;
8327;SDS011;4201;48.754;8.864;2023-02-19T01:26:42;4.17;;;3.40;;
8327;SDS011;4201;48.754;8.864;2023-02-19T01:29:08;5.73;;;4.37;;
8327;SDS011;4201;48.754;8.864;2023-02-19T01:31:34;5.73;;;4.07;;
8327;SDS011;4201;48.754;8.864;2023-02-19T01:34:02;5.20;;;4.30;;
8327;SDS011;4201;48.754;8.864;2023-02-19T01:36:31;6.17;;;4.00;;
8327;SDS011;4201;48.754;8.864;2023-02-19T01:38:58;4.70;;;3.77;;
8327;SDS011;4201;48.754;8.864;2023-02-19T01:41:24;8.17;;;3.93;;
8327;SDS011;4201;48.754;8.864;2023-02-19T01:43:54;4.27;;;3.77;;
8327;SDS011;4201;48.754;8.864;2023-02-19T01:46:23;4.93;;;3.70;;
8327;SDS011;4201;48.754;8.864;2023-02-19T01:48:49;5.90;;;3.33;;
8327;SDS011;4201;48.754;8.864;2023-02-19T01:51:16;4.30;;;3.33;;
8327;SDS011;4201;48.754;8.864;2023-02-19T01:53:45;5.13;;;3.43;;
8327;SDS011;4201;48.754;8.864;2023-02-19T01:56:13;4.00;;;3.20;;
8327;SDS011;4201;48.754;8.864;2023-02-19T01:58:40;5.90;;;3.73;;
8327;SDS011;4201;48.754;8.864;2023-02-19T02:01:06;4.33;;;3.63;;
8327;SDS011;4201;48.754;8.864;2023-02-19T02:03:33;5.10;;;3.70;;
8327;SDS011;4201;48.754;8.864;2023-02-19T02:06:01;4.70;;;3.53;;
8327;SDS011;4201;48.754;8.864;2023-02-19T02:08:27;6.50;;;4.17;;
8327;SDS011;4201;48.754;8.864;2023-02-19T02:11:13;7.13;;;3.70;;
8327;SDS011;4201;48.754;8.864;2023-02-19T02:13:39;6.07;;;3.80;;
8327;SDS011;4201;48.754;8.864;2023-02-19T02:16:11;4.97;;;3.70;;
8327;SDS011;4201;48.754;8.864;2023-02-19T02:18:43;6.40;;;3.70;;
8327;SDS011;4201;48.754;8.864;2023-02-19T02:21:28;6.23;;;3.77;;
8327;SDS011;4201;48.754;8.864;2023-02-19T02:24:04;5.10;;;3.43;;
8327;SDS011;4201;48.754;8.864;2023-02-19T02:26:36;5.10;;;3.70;;
8327;SDS011;4201;48.754;8.864;2023-02-19T02:29:15;10.50;;;3.63;;
8327;SDS011;4201;48.754;8.864;2023-02-19T02:31:44;4.63;;;3.60;;
8327;SDS011;4201;48.754;8.864;2023-02-19T02:34:15;6.93;;;3.20;;
8327;SDS011;4201;48.754;8.864;2023-02-19T02:36:43;4.87;;;3.90;;
8327;SDS011;4201;48.754;8.864;2023-02-19T02:39:10;4.90;;;3.70;;
8327;SDS011;4201;48.754;8.864;2023-02-19T02:41:39;4.10;;;3.30;;
8327;SDS011;4201;48.754;8.864;2023-02-19T02:44:06;4.97;;;4.10;;
8327;SDS011;4201;48.754;8.864;2023-02-19T02:46:33;5.77;;;3.73;;
8327;SDS011;4201;48.754;8.864;2023-02-19T02:49:02;4.33;;;3.23;;
8327;SDS011;4201;48.754;8.864;2023-02-19T02:51:31;4.67;;;3.53;;
8327;SDS011;4201;48.754;8.864;2023-02-19T02:53:59;4.03;;;3.37;;
8327;SDS011;4201;48.754;8.864;2023-02-19T02:56:45;3.90;;;3.30;;
8327;SDS011;4201;48.754;8.864;2023-02-19T02:59:12;4.83;;;4.23;;
8327;SDS011;4201;48.754;8.864;2023-02-19T03:01:40;3.87;;;3.10;;
8327;SDS011;4201;48.754;8.864;2023-02-19T03:04:29;4.80;;;4.07;;
8327;SDS011;4201;48.754;8.864;2023-02-19T03:06:56;6.50;;;3.87;;
8327;SDS011;4201;48.754;8.864;2023-02-19T03:09:24;4.70;;;3.60;;
8327;SDS011;4201;48.754;8.864;2023-02-19T03:11:54;4.70;;;4.07;;
8327;SDS011;4201;48.754;8.864;2023-02-19T03:14:41;8.03;;;3.90;;
8327;SDS011;4201;48.754;8.864;2023-02-19T03:17:26;3.87;;;3.20;;
8327;SDS011;4201;48.754;8.864;2023-02-19T03:20:14;4.67;;;3.53;;
8327;SDS011;4201;48.754;8.864;2023-02-19T03:22:41;6.17;;;3.23;;
8327;SDS011;4201;48.754;8.864;2023-02-19T03:25:08;5.53;;;3.47;;
8327;SDS011;4201;48.754;8.864;2023-02-19T03:27:52;4.10;;;2.90;;
8327;SDS011;4201;48.754;8.864;2023-02-19T03:30:20;4.77;;;3.20;;
8327;SDS011;4201;48.754;8.864;2023-02-19T03:32:48;4.10;;;3.00;;
8327;SDS011;4201;48.754;8.864;2023-02-19T03:35:17;4.10;;;2.70;;
8327;SDS011;4201;48.754;8.864;2023-02-19T03:37:46;4.53;;;3.07;;
8327;SDS011;4201;48.754;8.864;2023-02-19T03:40:14;3.40;;;2.30;;
8327;SDS011;4201;48.754;8.864;2023-02-19T03:42:42;3.80;;;2.47;;
8327;SDS011;4201;48.754;8.864;2023-02-19T03:45:15;3.57;;;2.40;;
8327;SDS011;4201;48.754;8.864;2023-02-19T03:47:45;3.03;;;2.37;;
8327;SDS011;4201;48.754;8.864;2023-02-19T03:50:14;3.00;;;2.17;;
8327;SDS011;4201;48.754;8.864;2023-02-19T03:52:45;5.17;;;2.20;;
8327;SDS011;4201;48.754;8.864;2023-02-19T03:55:17;2.77;;;2.00;;
8327;SDS011;4201;48.754;8.864;2023-02-19T03:57:49;4.53;;;1.83;;
8327;SDS011;4201;48.754;8.864;2023-02-19T04:00:17;4.40;;;1.90;;
8327;SDS011;4201;48.754;8.864;2023-02-19T04:02:45;3.50;;;2.10;;
8327;SDS011;4201;48.754;8.864;2023-02-19T04:05:13;3.03;;;2.27;;
8327;SDS011;4201;48.754;8.864;2023-02-19T04:07:41;3.80;;;2.50;;
8327;SDS011;4201;48.754;8.864;2023-02-19T04:10:10;2.63;;;1.70;;
8327;SDS011;4201;48.754;8.864;2023-02-19T04:12:38;3.40;;;1.80;;
8327;SDS011;4201;48.754;8.864;2023-02-19T04:15:05;2.50;;;1.30;;
8327;SDS011;4201;48.754;8.864;2023-02-19T04:17:33;2.63;;;1.70;;
8327;SDS011;4201;48.754;8.864;2023-02-19T04:20:01;2.20;;;1.30;;
8327;SDS011;4201;48.754;8.864;2023-02-19T04:22:28;2.07;;;1.10;;
8327;SDS011;4201;48.754;8.864;2023-02-19T04:24:55;2.10;;;1.20;;
8327;SDS011;4201;48.754;8.864;2023-02-19T04:27:22;2.83;;;1.27;;
8327;SDS011;4201;48.754;8.864;2023-02-19T04:29:49;1.77;;;0.80;;
8327;SDS011;4201;48.754;8.864;2023-02-19T04:32:15;1.70;;;0.80;;
8327;SDS011;4201;48.754;8.864;2023-02-19T04:34:41;2.00;;;0.70;;
8327;SDS011;4201;48.754;8.864;2023-02-19T04:37:07;2.77;;;0.73;;
8327;SDS011;4201;48.754;8.864;2023-02-19T04:39:34;1.80;;;0.70;;
8327;SDS011;4201;48.754;8.864;2023-02-19T04:42:00;1.87;;;0.80;;
8327;SDS011;4201;48.754;8.864;2023-02-19T04:44:27;1.70;;;0.60;;
8327;SDS011;4201;48.754;8.864;2023-02-19T04:46:54;1.70;;;0.60;;
8327;SDS011;4201;48.754;8.864;2023-02-19T04:49:20;1.90;;;0.70;;
8327;SDS011;4201;48.754;8.864;2023-02-19T04:51:46;1.57;;;0.67;;
8327;SDS011;4201;48.754;8.864;2023-02-19T04:54:12;1.50;;;0.60;;
8327;SDS011;4201;48.754;8.864;2023-02-19T04:56:39;1.60;;;0.70;;
8327;SDS011;4201;48.754;8.864;2023-02-19T04:59:05;1.60;;;0.60;;
8327;SDS011;4201;48.754;8.864;2023-02-19T05:01:32;1.50;;;0.60;;
8327;SDS011;4201;48.754;8.864;2023-02-19T05:03:59;1.80;;;0.67;;
8327;SDS011;4201;48.754;8.864;2023-02-19T05:06:25;1.50;;;0.60;;
8327;SDS011;4201;48.754;8.864;2023-02-19T05:08:51;1.60;;;0.70;;
8327;SDS011;4201;48.754;8.864;2023-02-19T05:11:17;1.40;;;0.60;;
8327;SDS011;4201;48.754;8.864;2023-02-19T05:13:44;1.50;;;0.60;;
8327;SDS011;4201;48.754;8.864;2023-02-19T05:16:10;1.50;;;0.60;;
8327;SDS011;4201;48.754;8.864;2023-02-19T05:18:41;2.10;;;0.60;;
8327;SDS011;4201;48.754;8.864;2023-02-19T05:21:08;1.50;;;0.60;;
8327;SDS011;4201;48.754;8.864;2023-02-19T05:23:34;1.60;;;0.60;;
8327;SDS011;4201;48.754;8.864;2023-02-19T05:26:03;1.50;;;0.70;;
8327;SDS011;4201;48.754;8.864;2023-02-19T05:28:29;1.50;;;0.60;;
8327;SDS011;4201;48.754;8.864;2023-02-19T05:30:55;1.40;;;0.60;;
8327;SDS011;4201;48.754;8.864;2023-02-19T05:33:22;1.50;;;0.70;;
8327;SDS011;4201;48.754;8.864;2023-02-19T05:35:51;1.60;;;0.60;;
8327;SDS011;4201;48.754;8.864;2023-02-19T05:38:17;1.40;;;0.60;;
8327;SDS011;4201;48.754;8.864;2023-02-19T05:40:44;1.40;;;0.53;;
8327;SDS011;4201;48.754;8.864;2023-02-19T05:43:11;1.80;;;0.60;;
8327;SDS011;4201;48.754;8.864;2023-02-19T05:45:37;1.50;;;0.60;;
8327;SDS011;4201;48.754;8.864;2023-02-19T05:48:04;1.70;;;0.60;;
8327;SDS011;4201;48.754;8.864;2023-02-19T05:50:31;1.53;;;0.60;;
8327;SDS011;4201;48.754;8.864;2023-02-19T05:52:59;1.50;;;0.60;;
8327;SDS011;4201;48.754;8.864;2023-02-19T05:55:26;1.40;;;0.60;;
8327;SDS011;4201;48.754;8.864;2023-02-19T05:57:52;1.50;;;0.60;;
8327;SDS011;4201;48.754;8.864;2023-02-19T06:00:19;1.40;;;0.60;;
8327;SDS011;4201;48.754;8.864;2023-02-19T06:02:45;1.83;;;0.80;;
8327;SDS011;4201;48.754;8.864;2023-02-19T06:05:12;1.40;;;0.60;;
8327;SDS011;4201;48.754;8.864;2023-02-19T06:07:38;1.77;;;0.60;;
8327;SDS011;4201;48.754;8.864;2023-02-19T06:10:07;1.50;;;0.60;;
8327;SDS011;4201;48.754;8.864;2023-02-19T06:12:33;1.40;;;0.60;;
8327;SDS011;4201;48.754;8.864;2023-02-19T06:15:00;1.57;;;0.70;;
8327;SDS011;4201;48.754;8.864;2023-02-19T06:17:26;1.50;;;0.60;;
8327;SDS011;4201;48.754;8.864;2023-02-19T06:19:52;1.50;;;0.70;;
8327;SDS011;4201;48.754;8.864;2023-02-19T06:22:18;1.90;;;0.80;;
8327;SDS011;4201;48.754;8.864;2023-02-19T06:24:45;2.10;;;1.10;;
8327;SDS011;4201;48.754;8.864;2023-02-19T06:27:13;2.10;;;0.93;;
8327;SDS011;4201;48.754;8.864;2023-02-19T06:29:39;1.90;;;1.10;;
8327;SDS011;4201;48.754;8.864;2023-02-19T06:32:05;1.90;;;1.00;;
8327;SDS011;4201;48.754;8.864;2023-02-19T06:34:32;2.07;;;1.00;;
8327;SDS011;4201;48.754;8.864;2023-02-19T06:36:58;1.90;;;1.10;;
8327;SDS011;4201;48.754;8.864;2023-02-19T06:39:25;2.10;;;1.10;;
8327;SDS011;4201;48.754;8.864;2023-02-19T06:41:53;2.00;;;1.00;;
8327;SDS011;4201;48.754;8.864;2023-02-19T06:44:21;1.90;;;0.90;;
8327;SDS011;4201;48.754;8.864;2023-02-19T06:46:47;3.13;;;1.37;;
8327;SDS011;4201;48.754;8.864;2023-02-19T06:49:13;1.90;;;1.10;;
8327;SDS011;4201;48.754;8.864;2023-02-19T06:51:40;2.20;;;1.17;;
8327;SDS011;4201;48.754;8.864;2023-02-19T06:54:06;3.27;;;1.23;;
8327;SDS011;4201;48.754;8.864;2023-02-19T06:56:33;2.37;;;1.33;;
8327;SDS011;4201;48.754;8.864;2023-02-19T06:59:00;3.40;;;1.40;;
8327;SDS011;4201;48.754;8.864;2023-02-19T07:01:28;3.40;;;1.47;;
8327;SDS011;4201;48.754;8.864;2023-02-19T07:03:55;2.43;;;1.30;;
8327;SDS011;4201;48.754;8.864;2023-02-19T07:06:22;2.50;;;1.10;;
8327;SDS011;4201;48.754;8.864;2023-02-19T07:08:49;2.50;;;1.30;;
8327;SDS011;4201;48.754;8.864;2023-02-19T07:11:15;3.00;;;1.50;;
8327;SDS011;4201;48.754;8.864;2023-02-19T07:13:42;3.17;;;1.57;;
8327;SDS011;4201;48.754;8.864;2023-02-19T07:16:09;3.30;;;2.30;;
8327;SDS011;4201;48.754;8.864;2023-02-19T07:18:37;5.70;;;1.60;;
8327;SDS011;4201;48.754;8.864;2023-02-19T07:21:04;3.20;;;1.90;;
8327;SDS011;4201;48.754;8.864;2023-02-19T07:23:30;3.20;;;1.70;;
8327;SDS011;4201;48.754;8.864;2023-02-19T07:25:57;2.73;;;1.53;;
8327;SDS011;4201;48.754;8.864;2023-02-19T07:28:23;3.40;;;1.80;;
8327;SDS011;4201;48.754;8.864;2023-02-19T07:30:49;2.30;;;1.57;;
8327;SDS011;4201;48.754;8.864;2023-02-19T07:33:15;4.45;;;1.83;;
8327;SDS011;4201;48.754;8.864;2023-02-19T07:35:45;3.30;;;1.90;;
8327;SDS011;4201;48.754;8.864;2023-02-19T07:38:13;3.30;;;1.97;;
8327;SDS011;4201;48.754;8.864;2023-02-19T07:40:40;3.27;;;2.10;;
8327;SDS011;4201;48.754;8.864;2023-02-19T07:43:06;3.50;;;2.00;;
8327;SDS011;4201;48.754;8.864;2023-02-19T07:45:32;3.10;;;1.90;;
8327;SDS011;4201;48.754;8.864;2023-02-19T07:47:58;4.67;;;2.13;;
8327;SDS011;4201;48.754;8.864;2023-02-19T07:50:24;4.03;;;2.20;;
8327;SDS011;4201;48.754;8.864;2023-02-19T07:52:52;3.10;;;1.90;;
8327;SDS011;4201;48.754;8.864;2023-02-19T07:55:18;3.50;;;2.13;;
8327;SDS011;4201;48.754;8.864;2023-02-19T07:57:44;2.70;;;1.80;;
8327;SDS011;4201;48.754;8.864;2023-02-19T08:00:11;3.20;;;1.80;;
8327;SDS011;4201;48.754;8.864;2023-02-19T08:02:38;3.17;;;1.73;;
8327;SDS011;4201;48.754;8.864;2023-02-19T08:05:21;2.87;;;1.87;;
8327;SDS011;4201;48.754;8.864;2023-02-19T08:07:47;2.40;;;1.40;;
8327;SDS011;4201;48.754;8.864;2023-02-19T08:10:15;2.37;;;1.50;;
8327;SDS011;4201;48.754;8.864;2023-02-19T08:12:59;4.00;;;1.93;;
8327;SDS011;4201;48.754;8.864;2023-02-19T08:15:44;2.60;;;1.33;;
8327;SDS011;4201;48.754;8.864;2023-02-19T08:18:11;2.23;;;1.20;;
8327;SDS011;4201;48.754;8.864;2023-02-19T08:20:38;3.20;;;1.80;;
8327;SDS011;4201;48.754;8.864;2023-02-19T08:23:04;2.00;;;1.00;;
8327;SDS011;4201;48.754;8.864;2023-02-19T08:25:32;2.97;;;1.63;;
8327;SDS011;4201;48.754;8.864;2023-02-19T08:27:58;3.57;;;2.20;;
8327;SDS011;4201;48.754;8.864;2023-02-19T08:30:25;5.73;;;3.23;;
8327;SDS011;4201;48.754;8.864;2023-02-19T08:32:51;4.67;;;2.50;;
8327;SDS011;4201;48.754;8.864;2023-02-19T08:35:18;3.20;;;2.00;;
8327;SDS011;4201;48.754;8.864;2023-02-19T08:37:44;3.93;;;1.70;;
8327;SDS011;4201;48.754;8.864;2023-02-19T08:40:11;3.90;;;1.67;;
8327;SDS011;4201;48.754;8.864;2023-02-19T08:42:38;2.47;;;1.33;;
8327;SDS011;4201;48.754;8.864;2023-02-19T08:45:05;2.97;;;1.40;;
8327;SDS011;4201;48.754;8.864;2023-02-19T08:47:33;2.73;;;1.23;;
8327;SDS011;4201;48.754;8.864;2023-02-19T08:49:59;3.53;;;1.53;;
8327;SDS011;4201;48.754;8.864;2023-02-19T08:52:26;3.00;;;1.87;;
8327;SDS011;4201;48.754;8.864;2023-02-19T08:54:52;4.43;;;1.40;;
8327;SDS011;4201;48.754;8.864;2023-02-19T08:57:18;3.90;;;1.73;;
8327;SDS011;4201;48.754;8.864;2023-02-19T08:59:46;3.30;;;1.70;;
8327;SDS011;4201;48.754;8.864;2023-02-19T09:02:12;4.23;;;1.67;;
8327;SDS011;4201;48.754;8.864;2023-02-19T09:04:38;6.40;;;1.97;;
8327;SDS011;4201;48.754;8.864;2023-02-19T09:07:05;5.67;;;2.30;;
8327;SDS011;4201;48.754;8.864;2023-02-19T09:09:35;3.63;;;1.73;;
8327;SDS011;4201;48.754;8.864;2023-02-19T09:12:02;2.97;;;1.57;;
8327;SDS011;4201;48.754;8.864;2023-02-19T09:14:30;4.20;;;1.50;;
8327;SDS011;4201;48.754;8.864;2023-02-19T09:16:58;4.03;;;2.13;;
8327;SDS011;4201;48.754;8.864;2023-02-19T09:19:24;4.83;;;2.50;;
8327;SDS011;4201;48.754;8.864;2023-02-19T09:21:51;5.30;;;2.20;;
8327;SDS011;4201;48.754;8.864;2023-02-19T09:24:17;4.70;;;3.90;;
8327;SDS011;4201;48.754;8.864;2023-02-19T09:26:44;3.00;;;1.83;;
8327;SDS011;4201;48.754;8.864;2023-02-19T09:29:10;7.67;;;2.50;;
8327;SDS011;4201;48.754;8.864;2023-02-19T09:31:36;3.23;;;1.90;;
8327;SDS011;4201;48.754;8.864;2023-02-19T09:34:04;3.50;;;1.80;;
8327;SDS011;4201;48.754;8.864;2023-02-19T09:36:30;5.73;;;2.40;;
8327;SDS011;4201;48.754;8.864;2023-02-19T09:38:57;5.50;;;1.57;;
8327;SDS011;4201;48.754;8.864;2023-02-19T09:41:25;6.17;;;2.10;;
8327;SDS011;4201;48.754;8.864;2023-02-19T09:43:53;4.80;;;2.00;;
8327;SDS011;4201;48.754;8.864;2023-02-19T09:46:24;6.40;;;1.80;;
8327;SDS011;4201;48.754;8.864;2023-02-19T09:48:52;4.43;;;1.73;;
8327;SDS011;4201;48.754;8.864;2023-02-19T09:51:20;2.93;;;1.60;;
8327;SDS011;4201;48.754;8.864;2023-02-19T09:53:48;6.13;;;2.90;;
8327;SDS011;4201;48.754;8.864;2023-02-19T09:56:15;7.27;;;1.90;;
8327;SDS011;4201;48.754;8.864;2023-02-19T09:58:42;4.03;;;2.07;;
8327;SDS011;4201;48.754;8.864;2023-02-19T10:01:11;3.00;;;1.60;;
8327;SDS011;4201;48.754;8.864;2023-02-19T10:03:38;6.20;;;1.97;;
8327;SDS011;4201;48.754;8.864;2023-02-19T10:06:06;3.40;;;1.80;;
8327;SDS011;4201;48.754;8.864;2023-02-19T10:08:34;7.67;;;2.70;;
8327;SDS011;4201;48.754;8.864;2023-02-19T10:11:01;4.40;;;1.60;;
8327;SDS011;4201;48.754;8.864;2023-02-19T10:13:30;9.70;;;2.20;;
8327;SDS011;4201;48.754;8.864;2023-02-19T10:15:58;4.60;;;2.40;;
8327;SDS011;4201;48.754;8.864;2023-02-19T10:18:26;8.80;;;2.33;;
8327;SDS011;4201;48.754;8.864;2023-02-19T10:20:53;4.20;;;2.03;;
8327;SDS011;4201;48.754;8.864;2023-02-19T10:23:20;3.97;;;2.00;;
8327;SDS011;4201;48.754;8.864;2023-02-19T10:25:49;5.07;;;1.80;;
8327;SDS011;4201;48.754;8.864;2023-02-19T10:28:19;3.23;;;1.73;;
8327;SDS011;4201;48.754;8.864;2023-02-19T10:30:47;4.87;;;2.70;;
8327;SDS011;4201;48.754;8.864;2023-02-19T10:33:15;4.87;;;1.80;;
8327;SDS011;4201;48.754;8.864;2023-02-19T10:35:52;4.67;;;1.97;;
8327;SDS011;4201;48.754;8.864;2023-02-19T10:38:19;8.93;;;2.13;;
8327;SDS011;4201;48.754;8.864;2023-02-19T10:40:48;7.13;;;1.80;;
8327;SDS011;4201;48.754;8.864;2023-02-19T10:43:19;5.87;;;1.83;;
8327;SDS011;4201;48.754;8.864;2023-02-19T10:45:48;7.50;;;2.07;;
8327;SDS011;4201;48.754;8.864;2023-02-19T10:48:20;8.70;;;2.27;;
8327;SDS011;4201;48.754;8.864;2023-02-19T10:50:49;2.70;;;1.60;;
8327;SDS011;4201;48.754;8.864;2023-02-19T10:53:22;4.73;;;1.73;;
8327;SDS011;4201;48.754;8.864;2023-02-19T10:55:51;5.90;;;1.63;;
8327;SDS011;4201;48.754;8.864;2023-02-19T10:58:30;10.07;;;4.50;;
8327;SDS011;4201;48.754;8.864;2023-02-19T11:01:11;8.27;;;2.40;;
8327;SDS011;4201;48.754;8.864;2023-02-19T11:03:38;6.60;;;1.60;;
8327;SDS011;4201;48.754;8.864;2023-02-19T11:06:05;4.30;;;1.73;;
8327;SDS011;4201;48.754;8.864;2023-02-19T11:08:34;6.20;;;2.03;;
8327;SDS011;4201;48.754;8.864;2023-02-19T11:11:10;6.10;;;2.40;;
8327;SDS011;4201;48.754;8.864;2023-02-19T11:13:45;9.53;;;1.83;;
8327;SDS011;4201;48.754;8.864;2023-02-19T11:16:12;3.37;;;2.10;;
8327;SDS011;4201;48.754;8.864;2023-02-19T11:18:38;5.17;;;1.97;;
8327;SDS011;4201;48.754;8.864;2023-02-19T11:21:07;4.90;;;1.93;;
8327;SDS011;4201;48.754;8.864;2023-02-19T11:23:47;4.20;;;1.60;;
8327;SDS011;4201;48.754;8.864;2023-02-19T11:26:16;6.03;;;1.33;;
8327;SDS011;4201;48.754;8.864;2023-02-19T11:28:43;5.67;;;1.90;;
8327;SDS011;4201;48.754;8.864;2023-02-19T11:31:23;3.80;;;1.87;;
8327;SDS011;4201;48.754;8.864;2023-02-19T11:33:52;7.43;;;2.30;;
8327;SDS011;4201;48.754;8.864;2023-02-19T11:36:26;6.10;;;2.07;;
8327;SDS011;4201;48.754;8.864;2023-02-19T11:38:53;6.10;;;2.10;;
8327;SDS011;4201;48.754;8.864;2023-02-19T11:41:23;3.90;;;1.70;;
8327;SDS011;4201;48.754;8.864;2023-02-19T11:44:05;4.73;;;1.47;;
8327;SDS011;4201;48.754;8.864;2023-02-19T11:46:37;4.07;;;1.50;;
8327;SDS011;4201;48.754;8.864;2023-02-19T11:49:10;4.17;;;1.60;;
8327;SDS011;4201;48.754;8.864;2023-02-19T11:51:50;2.47;;;1.30;;
8327;SDS011;4201;48.754;8.864;2023-02-19T11:54:22;2.80;;;1.70;;
8327;SDS011;4201;48.754;8.864;2023-02-19T11:56:53;5.40;;;1.80;;
8327;SDS011;4201;48.754;8.864;2023-02-19T11:59:21;6.60;;;2.27;;
8327;SDS011;4201;48.754;8.864;2023-02-19T12:01:53;3.83;;;2.40;;
8327;SDS011;4201;48.754;8.864;2023-02-19T12:07:10;2.80;;;1.30;;
8327;SDS011;4201;48.754;8.864;2023-02-19T12:09:42;4.87;;;1.40;;
8327;SDS011;4201;48.754;8.864;2023-02-19T12:12:17;7.70;;;1.80;;
8327;SDS011;4201;48.754;8.864;2023-02-19T12:17:42;3.53;;;1.57;;
8327;SDS011;4201;48.754;8.864;2023-02-19T12:20:16;4.93;;;2.00;;
8327;SDS011;4201;48.754;8.864;2023-02-19T12:22:43;4.77;;;1.87;;
8327;SDS011;4201;48.754;8.864;2023-02-19T12:28:03;3.90;;;1.60;;
8327;SDS011;4201;48.754;8.864;2023-02-19T12:30:37;6.10;;;2.40;;
8327;SDS011;4201;48.754;8.864;2023-02-19T12:33:19;4.70;;;1.97;;
8327;SDS011;4201;48.754;8.864;2023-02-19T12:35:55;4.67;;;1.80;;
8327;SDS011;4201;48.754;8.864;2023-02-19T12:38:26;6.47;;;2.37;;
8327;SDS011;4201;48.754;8.864;2023-02-19T12:41:00;5.80;;;1.87;;
8327;SDS011;4201;48.754;8.864;2023-02-19T12:43:30;2.80;;;1.47;;
8327;SDS011;4201;48.754;8.864;2023-02-19T12:45:57;4.70;;;1.80;;
8327;SDS011;4201;48.754;8.864;2023-02-19T12:48:26;5.70;;;1.60;;
8327;SDS011;4201;48.754;8.864;2023-02-19T12:50:55;3.93;;;1.37;;
8327;SDS011;4201;48.754;8.864;2023-02-19T12:53:33;5.00;;;2.20;;
8327;SDS011;4201;48.754;8.864;2023-02-19T12:56:02;6.10;;;1.70;;
8327;SDS011;4201;48.754;8.864;2023-02-19T12:58:31;6.43;;;2.10;;
8327;SDS011;4201;48.754;8.864;2023-02-19T13:00:59;4.67;;;1.70;;
8327;SDS011;4201;48.754;8.864;2023-02-19T13:03:27;4.30;;;1.70;;
8327;SDS011;4201;48.754;8.864;2023-02-19T13:05:56;3.40;;;1.50;;
8327;SDS011;4201;48.754;8.864;2023-02-19T13:08:23;4.20;;;1.77;;
8327;SDS011;4201;48.754;8.864;2023-02-19T13:10:52;6.47;;;1.60;;
8327;SDS011;4201;48.754;8.864;2023-02-19T13:13:20;4.17;;;1.67;;
8327;SDS011;4201;48.754;8.864;2023-02-19T13:15:49;5.67;;;2.30;;
8327;SDS011;4201;48.754;8.864;2023-02-19T13:18:17;5.60;;;1.90;;
8327;SDS011;4201;48.754;8.864;2023-02-19T13:20:44;6.83;;;2.33;;
8327;SDS011;4201;48.754;8.864;2023-02-19T13:23:13;3.60;;;1.57;;
8327;SDS011;4201;48.754;8.864;2023-02-19T13:26:05;6.10;;;1.90;;
8327;SDS011;4201;48.754;8.864;2023-02-19T13:28:41;5.40;;;1.80;;
8327;SDS011;4201;48.754;8.864;2023-02-19T13:31:26;3.93;;;1.60;;
8327;SDS011;4201;48.754;8.864;2023-02-19T13:33:57;3.93;;;1.67;;
8327;SDS011;4201;48.754;8.864;2023-02-19T13:36:26;3.70;;;1.40;;
8327;SDS011;4201;48.754;8.864;2023-02-19T13:38:53;7.57;;;2.33;;
8327;SDS011;4201;48.754;8.864;2023-02-19T13:41:26;6.03;;;1.90;;
8327;SDS011;4201;48.754;8.864;2023-02-19T13:43:53;4.93;;;1.70;;
8327;SDS011;4201;48.754;8.864;2023-02-19T13:46:21;5.13;;;1.60;;
8327;SDS011;4201;48.754;8.864;2023-02-19T13:48:48;5.83;;;1.63;;
8327;SDS011;4201;48.754;8.864;2023-02-19T13:51:44;5.80;;;1.97;;
8327;SDS011;4201;48.754;8.864;2023-02-19T13:54:19;12.00;;;2.13;;
8327;SDS011;4201;48.754;8.864;2023-02-19T13:56:46;6.97;;;1.70;;
8327;SDS011;4201;48.754;8.864;2023-02-19T13:59:23;7.63;;;2.60;;
8327;SDS011;4201;48.754;8.864;2023-02-19T14:07:33;7.90;;;2.40;;
8327;SDS011;4201;48.754;8.864;2023-02-19T14:10:00;3.40;;;1.73;;
8327;SDS011;4201;48.754;8.864;2023-02-19T14:12:29;6.40;;;2.10;;
8327;SDS011;4201;48.754;8.864;2023-02-19T14:14:56;16.40;;;3.63;;
8327;SDS011;4201;48.754;8.864;2023-02-19T14:17:43;5.93;;;2.00;;
8327;SDS011;4201;48.754;8.864;2023-02-19T14:30:59;9.67;;;2.93;;
8327;SDS011;4201;48.754;8.864;2023-02-19T14:33:26;5.07;;;1.83;;
8327;SDS011;4201;48.754;8.864;2023-02-19T14:35:55;6.70;;;3.17;;
8327;SDS011;4201;48.754;8.864;2023-02-19T14:38:23;7.30;;;2.27;;
8327;SDS011;4201;48.754;8.864;2023-02-19T14:40:50;7.40;;;2.00;;
8327;SDS011;4201;48.754;8.864;2023-02-19T14:43:18;4.20;;;1.90;;
8327;SDS011;4201;48.754;8.864;2023-02-19T14:45:46;11.43;;;2.40;;
8327;SDS011;4201;48.754;8.864;2023-02-19T14:48:16;5.00;;;1.80;;
8327;SDS011;4201;48.754;8.864;2023-02-19T14:50:45;5.60;;;2.00;;
8327;SDS011;4201;48.754;8.864;2023-02-19T14:53:11;8.63;;;2.27;;
8327;SDS011;4201;48.754;8.864;2023-02-19T14:55:39;6.30;;;2.47;;
8327;SDS011;4201;48.754;8.864;2023-02-19T14:58:09;5.00;;;2.10;;
8327;SDS011;4201;48.754;8.864;2023-02-19T15:00:37;8.77;;;2.47;;
8327;SDS011;4201;48.754;8.864;2023-02-19T15:03:04;7.60;;;2.43;;
8327;SDS011;4201;48.754;8.864;2023-02-19T15:05:33;5.17;;;2.60;;
8327;SDS011;4201;48.754;8.864;2023-02-19T15:08:00;4.63;;;1.87;;
8327;SDS011;4201;48.754;8.864;2023-02-19T15:10:28;6.97;;;2.53;;
8327;SDS011;4201;48.754;8.864;2023-02-19T15:12:56;5.43;;;1.80;;
8327;SDS011;4201;48.754;8.864;2023-02-19T15:15:24;3.90;;;2.20;;
8327;SDS011;4201;48.754;8.864;2023-02-19T15:17:52;3.97;;;1.77;;
8327;SDS011;4201;48.754;8.864;2023-02-19T15:20:22;4.30;;;2.50;;
8327;SDS011;4201;48.754;8.864;2023-02-19T15:22:51;6.23;;;2.50;;
8327;SDS011;4201;48.754;8.864;2023-02-19T15:25:18;7.93;;;2.00;;
8327;SDS011;4201;48.754;8.864;2023-02-19T15:27:44;7.20;;;3.10;;
8327;SDS011;4201;48.754;8.864;2023-02-19T15:30:18;3.73;;;2.00;;
8327;SDS011;4201;48.754;8.864;2023-02-19T15:32:50;4.10;;;2.03;;
8327;SDS011;4201;48.754;8.864;2023-02-19T15:35:17;4.87;;;2.47;;
8327;SDS011;4201;48.754;8.864;2023-02-19T15:37:44;5.30;;;2.10;;
8327;SDS011;4201;48.754;8.864;2023-02-19T15:40:12;6.37;;;2.60;;
8327;SDS011;4201;48.754;8.864;2023-02-19T15:42:39;4.77;;;2.37;;
8327;SDS011;4201;48.754;8.864;2023-02-19T15:45:06;6.57;;;2.90;;
8327;SDS011;4201;48.754;8.864;2023-02-19T15:47:34;6.60;;;2.50;;
8327;SDS011;4201;48.754;8.864;2023-02-19T15:50:04;4.50;;;1.97;;